Time;durP1;ratioP1;P1;durP2;ratioP2;P2;SDS_P1;SDS_P2;PMS_P1;PMS_P2;Temp;Humidity;BMP_temperature;BMP_pressure;BME280_temperature;BME280_humidity;BME280_pressure;Samples;Min_cycle;Max_cycle;Signal;HPM_P1;HPM_P2
2023/07/27 00:01:15;;;;;;;;;;;28.70;47.90;;;;;;5042429;28;87791;-58
2023/07/27 00:03:41;;;;;;;;;;;28.70;48.00;;;;;;5041926;28;87985;-57
2023/07/27 00:06:06;;;;;;;;;;;28.70;47.90;;;;;;5042173;28;88120;-57
2023/07/27 00:08:32;;;;;;;;;;;28.70;47.80;;;;;;5042638;28;87016;-60
2023/07/27 00:10:57;;;;;;;;;;;28.70;47.90;;;;;;5041457;28;88757;-55
2023/07/27 00:13:23;;;;;;;;;;;28.60;47.80;;;;;;5045116;28;88469;-58
2023/07/27 00:15:48;;;;;;;;;;;28.60;47.90;;;;;;5041307;28;88646;-57
2023/07/27 00:18:14;;;;;;;;;;;28.60;47.90;;;;;;5042027;28;88230;-60
2023/07/27 00:20:39;;;;;;;;;;;28.60;47.90;;;;;;5042917;28;86400;-57
2023/07/27 00:23:05;;;;;;;;;;;28.50;47.90;;;;;;5042769;28;87595;-60
2023/07/27 00:25:30;;;;;;;;;;;28.50;48.00;;;;;;5037835;27;89789;-57
2023/07/27 00:27:56;;;;;;;;;;;28.50;48.00;;;;;;5041952;28;88041;-57
2023/07/27 00:30:21;;;;;;;;;;;28.50;48.00;;;;;;5042482;28;88384;-53
2023/07/27 00:32:47;;;;;;;;;;;28.50;48.00;;;;;;5040679;28;88236;-54
2023/07/27 00:35:12;;;;;;;;;;;28.50;48.10;;;;;;5044743;28;87227;-55
2023/07/27 00:37:38;;;;;;;;;;;28.50;48.10;;;;;;5041882;28;88247;-60
2023/07/27 00:40:04;;;;;;;;;;;28.50;48.00;;;;;;5040637;28;87123;-56
2023/07/27 00:42:29;;;;;;;;;;;28.50;48.00;;;;;;5042356;28;87465;-58
2023/07/27 00:44:54;;;;;;;;;;;28.40;48.10;;;;;;5042231;28;87274;-54
2023/07/27 00:47:20;;;;;;;;;;;28.40;48.10;;;;;;5041300;28;87100;-56
2023/07/27 00:49:45;;;;;;;;;;;28.40;48.10;;;;;;5042035;28;87456;-54
2023/07/27 00:52:11;;;;;;;;;;;28.40;48.10;;;;;;5040946;28;89059;-56
2023/07/27 00:54:37;;;;;;;;;;;28.30;48.20;;;;;;5041127;28;87129;-54
2023/07/27 00:57:02;;;;;;;;;;;28.30;48.10;;;;;;5044106;28;87851;-57
2023/07/27 00:59:28;;;;;;;;;;;28.20;48.20;;;;;;5041087;28;87152;-53
2023/07/27 01:01:53;;;;;;;;;;;28.20;48.20;;;;;;5041642;28;87571;-60
2023/07/27 01:04:19;;;;;;;;;;;28.20;48.20;;;;;;5041185;28;88730;-58
2023/07/27 01:06:44;;;;;;;;;;;28.20;48.20;;;;;;5040805;28;87112;-57
2023/07/27 01:09:10;;;;;;;;;;;28.20;48.00;;;;;;5042496;28;86754;-57
2023/07/27 01:11:38;;;;;;;;;;;28.20;48.00;;;;;;5038211;28;88037;-58
2023/07/27 01:14:14;;;;;;;;;;;28.10;48.00;;;;;;5041832;27;87103;-57
2023/07/27 01:16:54;;;;;;;;;;;28.10;48.00;;;;;;5040139;28;89803;-58
2023/07/27 01:19:25;;;;;;;;;;;28.10;48.00;;;;;;5040182;28;87135;-59
2023/07/27 01:21:59;;;;;;;;;;;28.10;48.00;;;;;;5037665;28;87473;-56
2023/07/27 01:24:43;;;;;;;;;;;28.00;47.90;;;;;;5038054;28;88285;-54
2023/07/27 01:27:25;;;;;;;;;;;28.00;48.00;;;;;;5041569;27;87178;-59
2023/07/27 01:30:06;;;;;;;;;;;28.00;47.90;;;;;;5041966;28;87535;-59
2023/07/27 01:32:33;;;;;;;;;;;28.00;47.90;;;;;;5044730;28;88299;-59
2023/07/27 01:35:00;;;;;;;;;;;28.00;47.90;;;;;;5045481;28;86385;-57
2023/07/27 01:37:28;;;;;;;;;;;27.90;47.90;;;;;;5044689;28;88083;-58
2023/07/27 01:39:55;;;;;;;;;;;27.90;48.00;;;;;;5046828;28;88074;-58
2023/07/27 01:42:22;;;;;;;;;;;27.90;47.90;;;;;;5042400;28;88285;-58
2023/07/27 01:44:48;;;;;;;;;;;27.90;47.90;;;;;;5044715;28;88240;-58
2023/07/27 01:47:14;;;;;;;;;;;27.80;48.00;;;;;;5045170;28;87093;-58
2023/07/27 01:49:40;;;;;;;;;;;27.80;47.90;;;;;;5045052;28;87193;-58
2023/07/27 01:52:06;;;;;;;;;;;27.80;47.90;;;;;;5044450;28;89469;-56
2023/07/27 01:54:32;;;;;;;;;;;27.80;47.80;;;;;;5044661;28;87069;-57
2023/07/27 01:56:58;;;;;;;;;;;27.80;47.70;;;;;;5040603;28;88001;-56
2023/07/27 01:59:24;;;;;;;;;;;27.70;47.80;;;;;;5045141;28;86454;-59
2023/07/27 02:01:50;;;;;;;;;;;27.70;47.80;;;;;;5047702;28;87199;-56
2023/07/27 02:04:15;;;;;;;;;;;27.70;47.90;;;;;;5044518;28;87915;-59
2023/07/27 02:06:41;;;;;;;;;;;27.70;47.90;;;;;;5043448;28;88107;-57
2023/07/27 02:09:06;;;;;;;;;;;27.70;47.70;;;;;;5044974;28;88267;-53
2023/07/27 02:11:32;;;;;;;;;;;27.70;47.60;;;;;;5043545;28;88568;-59
2023/07/27 02:14:24;;;;;;;;;;;27.60;47.60;;;;;;5044466;28;87086;-55
2023/07/27 02:16:50;;;;;;;;;;;27.60;47.50;;;;;;5012396;28;88457;-54
2023/07/27 02:19:16;;;;;;;;;;;27.60;47.50;;;;;;5043592;28;89153;-59
2023/07/27 02:21:43;;;;;;;;;;;27.60;47.50;;;;;;5042621;28;87145;-59
2023/07/27 02:24:09;;;;;;;;;;;27.50;47.20;;;;;;5047636;28;87545;-59
2023/07/27 02:26:35;;;;;;;;;;;27.50;47.30;;;;;;5043521;28;88035;-57
2023/07/27 02:29:00;;;;;;;;;;;27.50;47.20;;;;;;5044536;28;87527;-57
2023/07/27 02:31:26;;;;;;;;;;;27.50;47.20;;;;;;5043336;28;89182;-56
2023/07/27 02:33:51;;;;;;;;;;;27.40;47.00;;;;;;5044490;28;87137;-59
2023/07/27 02:36:17;;;;;;;;;;;27.40;47.10;;;;;;5044454;28;87428;-57
2023/07/27 02:38:42;;;;;;;;;;;27.40;47.20;;;;;;5042200;27;88279;-59
2023/07/27 02:41:11;;;;;;;;;;;27.30;47.00;;;;;;5042689;28;87173;-54
2023/07/27 02:43:37;;;;;;;;;;;27.30;47.10;;;;;;5044340;28;87452;-54
2023/07/27 02:46:04;;;;;;;;;;;27.30;47.00;;;;;;5046742;28;87358;-57
2023/07/27 02:48:29;;;;;;;;;;;27.30;46.90;;;;;;5044413;28;87562;-56
2023/07/27 02:50:55;;;;;;;;;;;27.30;47.10;;;;;;5039771;28;87081;-57
2023/07/27 02:53:20;;;;;;;;;;;27.20;46.90;;;;;;5043512;28;87742;-54
2023/07/27 02:55:55;;;;;;;;;;;27.20;46.90;;;;;;5042612;28;90468;-55
2023/07/27 02:58:21;;;;;;;;;;;27.20;46.90;;;;;;5039643;28;88576;-59
2023/07/27 03:00:50;;;;;;;;;;;27.10;46.90;;;;;;5043884;28;86988;-54
2023/07/27 03:03:16;;;;;;;;;;;27.10;46.90;;;;;;5043985;28;87508;-57
2023/07/27 03:05:41;;;;;;;;;;;27.10;46.90;;;;;;5043563;28;88195;-57
2023/07/27 03:08:07;;;;;;;;;;;27.10;46.80;;;;;;5045156;28;87124;-59
2023/07/27 03:10:34;;;;;;;;;;;27.10;46.90;;;;;;5043518;28;87136;-56
2023/07/27 03:12:59;;;;;;;;;;;27.00;46.80;;;;;;5042477;28;86283;-58
2023/07/27 03:15:25;;;;;;;;;;;27.10;46.90;;;;;;5043817;28;87002;-57
2023/07/27 03:17:50;;;;;;;;;;;27.00;46.80;;;;;;5043349;28;87935;-60
2023/07/27 03:20:16;;;;;;;;;;;27.00;46.90;;;;;;5042466;28;88481;-54
2023/07/27 03:22:41;;;;;;;;;;;27.00;46.90;;;;;;5042867;28;88422;-58
2023/07/27 03:25:07;;;;;;;;;;;27.00;46.90;;;;;;5043050;28;88087;-57
2023/07/27 03:27:32;;;;;;;;;;;26.90;46.90;;;;;;5041664;27;87224;-57
2023/07/27 03:29:58;;;;;;;;;;;26.90;46.90;;;;;;5046034;28;87225;-57
2023/07/27 03:32:23;;;;;;;;;;;26.90;46.90;;;;;;5042968;28;87208;-57
2023/07/27 03:34:49;;;;;;;;;;;26.90;46.90;;;;;;5041519;28;87676;-56
2023/07/27 03:37:14;;;;;;;;;;;26.80;46.80;;;;;;5039472;28;88227;-57
2023/07/27 03:39:40;;;;;;;;;;;26.80;46.90;;;;;;5041214;28;87152;-56
2023/07/27 03:42:05;;;;;;;;;;;26.80;46.80;;;;;;5043416;27;87408;-57
2023/07/27 03:44:31;;;;;;;;;;;26.80;46.80;;;;;;5039270;28;89149;-58
2023/07/27 03:46:56;;;;;;;;;;;26.80;46.80;;;;;;5039883;28;87290;-55
2023/07/27 03:49:22;;;;;;;;;;;26.80;46.90;;;;;;5041469;27;88031;-55
2023/07/27 03:51:47;;;;;;;;;;;26.80;46.90;;;;;;5043382;27;87246;-55
2023/07/27 03:54:13;;;;;;;;;;;26.80;46.90;;;;;;5040184;28;87430;-56
2023/07/27 03:56:38;;;;;;;;;;;26.70;46.90;;;;;;5038409;28;88023;-54
2023/07/27 03:59:04;;;;;;;;;;;26.70;46.80;;;;;;5042963;28;87133;-55
2023/07/27 04:01:29;;;;;;;;;;;26.70;46.80;;;;;;5041879;28;87521;-58
2023/07/27 04:03:55;;;;;;;;;;;26.60;46.80;;;;;;5040148;28;87980;-57
2023/07/27 04:06:20;;;;;;;;;;;26.60;46.90;;;;;;5039132;28;87217;-59
2023/07/27 04:08:47;;;;;;;;;;;26.60;46.70;;;;;;5042154;28;87995;-56
2023/07/27 04:11:13;;;;;;;;;;;26.60;46.70;;;;;;5045517;27;88714;-58
2023/07/27 04:13:38;;;;;;;;;;;26.50;46.60;;;;;;5039529;28;87199;-57
2023/07/27 04:16:04;;;;;;;;;;;26.50;46.70;;;;;;5037890;28;88054;-59
2023/07/27 04:18:30;;;;;;;;;;;26.50;46.60;;;;;;5042499;28;87180;-57
2023/07/27 04:20:55;;;;;;;;;;;26.50;46.70;;;;;;5040818;27;87721;-58
2023/07/27 04:23:21;;;;;;;;;;;26.50;46.70;;;;;;5040254;28;88303;-57
2023/07/27 04:25:46;;;;;;;;;;;26.50;46.70;;;;;;5039641;28;86508;-57
2023/07/27 04:28:12;;;;;;;;;;;26.50;46.70;;;;;;5042083;28;87052;-55
2023/07/27 04:30:37;;;;;;;;;;;26.40;46.80;;;;;;5041681;27;87776;-53
2023/07/27 04:33:03;;;;;;;;;;;26.40;46.70;;;;;;5042366;28;88059;-56
2023/07/27 04:35:28;;;;;;;;;;;26.40;46.80;;;;;;5036645;28;87266;-55
2023/07/27 04:37:53;;;;;;;;;;;26.30;46.80;;;;;;5041034;28;87202;-58
2023/07/27 04:40:19;;;;;;;;;;;26.30;46.60;;;;;;5038617;27;90300;-56
2023/07/27 04:42:45;;;;;;;;;;;26.30;46.60;;;;;;5037425;28;88121;-58
2023/07/27 04:45:10;;;;;;;;;;;26.30;46.70;;;;;;5041263;28;87337;-59
2023/07/27 04:47:36;;;;;;;;;;;26.20;46.70;;;;;;5043560;27;87046;-57
2023/07/27 04:50:02;;;;;;;;;;;26.20;46.70;;;;;;5039872;27;87664;-56
2023/07/27 04:52:28;;;;;;;;;;;26.20;46.70;;;;;;5035239;28;87554;-57
2023/07/27 04:54:53;;;;;;;;;;;26.20;46.60;;;;;;5044394;28;88584;-57
2023/07/27 04:57:19;;;;;;;;;;;26.20;46.60;;;;;;5040382;28;89414;-53
2023/07/27 04:59:44;;;;;;;;;;;26.20;46.70;;;;;;5039077;28;88394;-57
2023/07/27 05:02:10;;;;;;;;;;;26.20;46.80;;;;;;5039405;27;88271;-57
2023/07/27 05:04:35;;;;;;;;;;;26.10;46.70;;;;;;5041709;28;87356;-59
2023/07/27 05:07:01;;;;;;;;;;;26.10;46.60;;;;;;5045474;27;90302;-60
2023/07/27 05:09:26;;;;;;;;;;;26.10;46.60;;;;;;5042200;28;88197;-58
2023/07/27 05:11:52;;;;;;;;;;;26.10;46.50;;;;;;5040847;28;87540;-54
2023/07/27 05:14:17;;;;;;;;;;;26.00;46.50;;;;;;5045980;28;88715;-56
2023/07/27 05:16:43;;;;;;;;;;;26.00;46.60;;;;;;5048816;27;87519;-56
2023/07/27 05:19:08;;;;;;;;;;;26.00;46.50;;;;;;5041944;28;87707;-57
2023/07/27 05:21:34;;;;;;;;;;;26.00;46.40;;;;;;5039586;28;89164;-58
2023/07/27 05:23:59;;;;;;;;;;;26.00;46.60;;;;;;5045336;28;87456;-56
2023/07/27 05:26:25;;;;;;;;;;;26.00;46.50;;;;;;5045876;27;87971;-59
2023/07/27 05:28:50;;;;;;;;;;;26.00;46.50;;;;;;5041807;28;88152;-58
2023/07/27 05:31:16;;;;;;;;;;;26.00;46.60;;;;;;5039693;28;88332;-54
2023/07/27 05:33:41;;;;;;;;;;;25.90;46.50;;;;;;5045167;28;87596;-53
2023/07/27 05:36:07;;;;;;;;;;;25.90;46.50;;;;;;5045156;27;88165;-58
2023/07/27 05:38:32;;;;;;;;;;;25.90;46.50;;;;;;5045572;28;86492;-57
2023/07/27 05:40:59;;;;;;;;;;;25.90;46.60;;;;;;5039519;28;87916;-57
2023/07/27 05:43:24;;;;;;;;;;;25.90;46.50;;;;;;5044284;28;87133;-55
2023/07/27 05:45:50;;;;;;;;;;;25.90;46.40;;;;;;5043907;27;88173;-58
2023/07/27 05:48:15;;;;;;;;;;;25.80;46.50;;;;;;5040821;28;87688;-55
2023/07/27 05:50:41;;;;;;;;;;;25.80;46.50;;;;;;5041152;28;87342;-55
2023/07/27 05:53:06;;;;;;;;;;;25.80;46.50;;;;;;5046149;27;87457;-55
2023/07/27 05:55:32;;;;;;;;;;;25.90;46.60;;;;;;5041401;28;88171;-59
2023/07/27 05:57:57;;;;;;;;;;;25.80;46.50;;;;;;5043045;28;87206;-58
2023/07/27 06:00:23;;;;;;;;;;;25.80;46.60;;;;;;5044577;28;88088;-58
2023/07/27 06:02:48;;;;;;;;;;;25.80;46.50;;;;;;5044626;27;86364;-57
2023/07/27 06:05:14;;;;;;;;;;;25.80;46.50;;;;;;5041399;28;88262;-51
2023/07/27 06:07:39;;;;;;;;;;;25.80;46.60;;;;;;5037812;28;88721;-55
2023/07/27 06:10:05;;;;;;;;;;;25.80;46.60;;;;;;5044063;28;88126;-55
2023/07/27 06:12:30;;;;;;;;;;;25.70;46.20;;;;;;5042323;27;89764;-57
2023/07/27 06:14:57;;;;;;;;;;;25.80;46.30;;;;;;5041292;28;89840;-59
2023/07/27 06:17:22;;;;;;;;;;;25.70;46.30;;;;;;5038726;28;87708;-53
2023/07/27 06:19:48;;;;;;;;;;;25.70;46.20;;;;;;5046177;28;88628;-55
2023/07/27 06:22:13;;;;;;;;;;;25.70;46.10;;;;;;5044361;27;88061;-59
2023/07/27 06:24:39;;;;;;;;;;;25.70;46.10;;;;;;5042187;28;88321;-58
2023/07/27 06:27:05;;;;;;;;;;;25.70;46.10;;;;;;5039108;27;87651;-58
2023/07/27 06:29:30;;;;;;;;;;;25.70;46.10;;;;;;5043863;28;87701;-59
2023/07/27 06:31:56;;;;;;;;;;;25.70;46.00;;;;;;5040502;28;88099;-57
2023/07/27 06:34:21;;;;;;;;;;;25.70;46.00;;;;;;5040446;28;90212;-58
2023/07/27 06:36:47;;;;;;;;;;;25.70;46.10;;;;;;5038881;28;87378;-59
2023/07/27 06:39:13;;;;;;;;;;;25.70;46.10;;;;;;5043907;28;88646;-54
2023/07/27 06:41:38;;;;;;;;;;;25.70;46.30;;;;;;5041290;27;87279;-56
2023/07/27 06:44:04;;;;;;;;;;;25.70;46.20;;;;;;5040533;28;87382;-56
2023/07/27 06:46:30;;;;;;;;;;;25.60;46.80;;;;;;5038543;28;88197;-57
2023/07/27 06:48:55;;;;;;;;;;;25.60;46.20;;;;;;5043981;28;87034;-56
2023/07/27 06:51:23;;;;;;;;;;;25.60;46.20;;;;;;5043692;27;87256;-56
2023/07/27 06:53:48;;;;;;;;;;;25.60;46.10;;;;;;5039323;28;89107;-59
2023/07/27 06:56:14;;;;;;;;;;;25.60;46.20;;;;;;5039348;28;87277;-55
2023/07/27 06:58:39;;;;;;;;;;;25.60;46.20;;;;;;5042371;27;88897;-57
2023/07/27 07:01:05;;;;;;;;;;;25.60;46.30;;;;;;5042713;27;88022;-53
2023/07/27 07:03:30;;;;;;;;;;;25.60;46.30;;;;;;5043154;28;87901;-57
2023/07/27 07:05:56;;;;;;;;;;;25.60;46.40;;;;;;5039889;28;88023;-56
2023/07/27 07:08:21;;;;;;;;;;;25.60;46.40;;;;;;5043200;27;87156;-55
2023/07/27 07:10:47;;;;;;;;;;;25.60;46.30;;;;;;5041007;27;87439;-56
2023/07/27 07:13:12;;;;;;;;;;;25.50;46.30;;;;;;5038710;28;87989;-57
2023/07/27 07:15:38;;;;;;;;;;;25.50;46.30;;;;;;5044245;28;86266;-57
2023/07/27 07:18:03;;;;;;;;;;;25.60;46.40;;;;;;5044606;27;87691;-52
2023/07/27 07:20:29;;;;;;;;;;;25.50;46.30;;;;;;5040173;28;89485;-56
2023/07/27 07:22:54;;;;;;;;;;;25.50;46.30;;;;;;5039392;28;88129;-53
2023/07/27 07:25:20;;;;;;;;;;;25.50;46.20;;;;;;5042486;27;88400;-53
2023/07/27 07:27:46;;;;;;;;;;;25.50;46.20;;;;;;5044565;27;87132;-53
2023/07/27 07:30:11;;;;;;;;;;;25.50;46.30;;;;;;5039692;28;87800;-55
2023/07/27 07:32:37;;;;;;;;;;;25.40;46.20;;;;;;5037326;28;87732;-58
2023/07/27 07:35:02;;;;;;;;;;;25.50;46.30;;;;;;5042757;28;87444;-58
2023/07/27 07:37:28;;;;;;;;;;;25.40;46.00;;;;;;5043675;27;86995;-57
2023/07/27 07:39:53;;;;;;;;;;;25.40;45.90;;;;;;5040149;28;87342;-56
2023/07/27 07:42:19;;;;;;;;;;;25.40;46.20;;;;;;5036906;28;87187;-55
2023/07/27 07:44:46;;;;;;;;;;;25.40;46.10;;;;;;5044319;28;87377;-53
2023/07/27 07:47:11;;;;;;;;;;;25.40;46.10;;;;;;5042578;27;88374;-52
2023/07/27 07:49:37;;;;;;;;;;;25.30;46.10;;;;;;5039760;28;89408;-55
2023/07/27 07:52:02;;;;;;;;;;;25.40;46.00;;;;;;5036881;28;87623;-56
2023/07/27 07:54:29;;;;;;;;;;;25.40;46.10;;;;;;5043015;28;87117;-55
2023/07/27 07:56:55;;;;;;;;;;;25.30;45.90;;;;;;5038987;27;87531;-56
2023/07/27 07:59:20;;;;;;;;;;;25.30;46.10;;;;;;5037711;28;88355;-56
2023/07/27 08:01:46;;;;;;;;;;;25.30;45.80;;;;;;5038791;28;87647;-53
2023/07/27 08:04:11;;;;;;;;;;;25.30;45.70;;;;;;5043048;28;87472;-55
2023/07/27 08:06:37;;;;;;;;;;;25.30;45.70;;;;;;5045073;27;88156;-59
2023/07/27 08:09:02;;;;;;;;;;;25.30;45.60;;;;;;5040442;28;88130;-57
2023/07/27 08:11:28;;;;;;;;;;;25.30;45.80;;;;;;5040313;28;88932;-56
2023/07/27 08:13:55;;;;;;;;;;;25.20;45.90;;;;;;5041777;28;87123;-55
2023/07/27 08:16:20;;;;;;;;;;;25.30;45.90;;;;;;5042261;27;87918;-57
2023/07/27 08:18:46;;;;;;;;;;;25.30;45.80;;;;;;5038892;28;88215;-53
2023/07/27 08:21:12;;;;;;;;;;;25.20;45.80;;;;;;5038288;28;87098;-54
2023/07/27 08:23:38;;;;;;;;;;;25.20;45.80;;;;;;5037873;28;88785;-56
2023/07/27 08:26:06;;;;;;;;;;;25.20;46.30;;;;;;5042224;27;87892;-55
2023/07/27 08:28:32;;;;;;;;;;;25.20;45.80;;;;;;5041406;28;87211;-57
2023/07/27 08:30:57;;;;;;;;;;;25.20;45.70;;;;;;5038575;28;88309;-56
2023/07/27 08:33:23;;;;;;;;;;;25.20;45.70;;;;;;5041910;28;87190;-55
2023/07/27 08:35:49;;;;;;;;;;;25.10;45.50;;;;;;5040760;27;88866;-53
2023/07/27 08:38:14;;;;;;;;;;;25.10;45.50;;;;;;5037875;28;88118;-56
2023/07/27 08:40:40;;;;;;;;;;;25.10;45.50;;;;;;5036648;28;87349;-57
2023/07/27 08:43:07;;;;;;;;;;;25.10;45.50;;;;;;5041753;28;87077;-57
2023/07/27 08:45:34;;;;;;;;;;;25.10;45.50;;;;;;5038821;27;89385;-57
2023/07/27 08:48:00;;;;;;;;;;;25.10;45.40;;;;;;5038401;28;87320;-54
2023/07/27 08:50:25;;;;;;;;;;;25.10;45.30;;;;;;5039647;28;88438;-57
2023/07/27 08:52:51;;;;;;;;;;;25.10;45.40;;;;;;5042131;27;86287;-52
2023/07/27 08:55:16;;;;;;;;;;;25.10;45.40;;;;;;5038900;27;87138;-52
2023/07/27 08:57:42;;;;;;;;;;;25.10;45.40;;;;;;5036978;28;88218;-55
2023/07/27 09:00:09;;;;;;;;;;;25.10;45.40;;;;;;5040591;28;88026;-58
2023/07/27 09:02:35;;;;;;;;;;;25.00;45.40;;;;;;5041183;28;89767;-59
2023/07/27 09:05:01;;;;;;;;;;;25.00;45.40;;;;;;5038244;28;88243;-58
2023/07/27 09:07:26;;;;;;;;;;;25.00;45.50;;;;;;5037385;28;88122;-55
2023/07/27 09:09:53;;;;;;;;;;;25.10;45.50;;;;;;5042142;28;87725;-58
2023/07/27 09:12:22;;;;;;;;;;;25.10;45.50;;;;;;5044694;27;89533;-57
2023/07/27 09:14:47;;;;;;;;;;;25.10;45.30;;;;;;5043958;27;90081;-58
2023/07/27 09:17:13;;;;;;;;;;;25.10;45.40;;;;;;5035971;28;87443;-54
2023/07/27 09:19:40;;;;;;;;;;;25.00;45.30;;;;;;5041158;28;87362;-57
2023/07/27 09:22:05;;;;;;;;;;;25.10;45.10;;;;;;5040645;27;87796;-56
2023/07/27 09:24:32;;;;;;;;;;;25.00;44.60;;;;;;5037184;28;88981;-55
2023/07/27 09:26:58;;;;;;;;;;;25.00;44.70;;;;;;5036682;28;87204;-55
2023/07/27 09:29:24;;;;;;;;;;;25.00;44.80;;;;;;5040166;28;87388;-57
2023/07/27 09:31:51;;;;;;;;;;;25.00;44.80;;;;;;5040557;27;89248;-54
2023/07/27 09:34:18;;;;;;;;;;;25.00;44.80;;;;;;5041264;28;87533;-57
2023/07/27 09:36:44;;;;;;;;;;;25.00;44.90;;;;;;5036504;28;89826;-57
2023/07/27 09:39:10;;;;;;;;;;;25.00;44.90;;;;;;5041562;28;87086;-56
2023/07/27 09:41:42;;;;;;;;;;;25.00;45.00;;;;;;5038754;28;87739;-57
2023/07/27 09:44:11;;;;;;;;;;;25.00;45.00;;;;;;5036087;28;87986;-58
2023/07/27 09:46:37;;;;;;;;;;;25.00;44.90;;;;;;5036179;27;87035;-58
2023/07/27 09:49:03;;;;;;;;;;;25.00;44.80;;;;;;5043526;27;87901;-54
2023/07/27 09:51:29;;;;;;;;;;;25.00;44.70;;;;;;5043822;27;88342;-58
2023/07/27 09:53:55;;;;;;;;;;;25.00;44.80;;;;;;5044731;28;87337;-58
2023/07/27 09:56:20;;;;;;;;;;;25.00;44.70;;;;;;5041844;27;88000;-57
2023/07/27 09:58:46;;;;;;;;;;;25.00;44.80;;;;;;5045051;28;87356;-56
2023/07/27 10:01:12;;;;;;;;;;;25.00;44.80;;;;;;5042769;27;87522;-53
2023/07/27 10:03:38;;;;;;;;;;;25.00;44.80;;;;;;5042058;28;88146;-56
2023/07/27 10:06:04;;;;;;;;;;;25.00;44.80;;;;;;5040307;28;86425;-51
2023/07/27 10:08:31;;;;;;;;;;;25.00;44.80;;;;;;5044709;28;86909;-58
2023/07/27 10:11:03;;;;;;;;;;;24.90;44.70;;;;;;5040450;28;88102;-56
2023/07/27 10:13:28;;;;;;;;;;;25.00;44.80;;;;;;5038035;28;88941;-54
2023/07/27 10:15:55;;;;;;;;;;;24.90;44.50;;;;;;5044495;28;88593;-57
2023/07/27 10:18:22;;;;;;;;;;;24.90;44.70;;;;;;5045466;27;87331;-56
2023/07/27 10:20:47;;;;;;;;;;;24.90;44.80;;;;;;5040596;27;88295;-56
2023/07/27 10:23:13;;;;;;;;;;;24.90;44.80;;;;;;5039887;28;88006;-55
2023/07/27 10:25:57;;;;;;;;;;;25.00;44.90;;;;;;5044059;28;87144;-56
2023/07/27 10:28:35;;;;;;;;;;;24.90;44.80;;;;;;5040285;27;87060;-54
2023/07/27 10:31:20;;;;;;;;;;;24.90;44.70;;;;;;5038565;28;87998;-57
2023/07/27 10:33:49;;;;;;;;;;;25.00;44.70;;;;;;5038920;28;87455;-55
2023/07/27 10:39:00;;;;;;;;;;;25.00;44.90;;;;;;5042558;27;88992;-54
2023/07/27 10:41:26;;;;;;;;;;;24.90;44.70;;;;;;5039851;28;88489;-58
2023/07/27 10:44:14;;;;;;;;;;;24.90;44.80;;;;;;5043458;28;88022;-55
2023/07/27 10:46:43;;;;;;;;;;;25.00;44.70;;;;;;5043050;27;87083;-56
2023/07/27 10:49:10;;;;;;;;;;;24.90;44.60;;;;;;5041303;28;87116;-56
2023/07/27 10:51:35;;;;;;;;;;;25.00;44.60;;;;;;5040683;28;88640;-56
2023/07/27 10:54:01;;;;;;;;;;;24.90;44.50;;;;;;5043897;28;87137;-58
2023/07/27 10:56:27;;;;;;;;;;;24.90;44.50;;;;;;5043333;27;87495;-56
2023/07/27 10:58:59;;;;;;;;;;;24.90;44.70;;;;;;5040644;27;87748;-55
2023/07/27 11:01:24;;;;;;;;;;;25.00;44.40;;;;;;5044203;28;87143;-56
2023/07/27 11:03:50;;;;;;;;;;;25.00;44.70;;;;;;5042665;27;89114;-55
2023/07/27 11:06:17;;;;;;;;;;;24.90;44.70;;;;;;5041111;28;87164;-57
2023/07/27 11:08:43;;;;;;;;;;;25.00;44.60;;;;;;5040799;28;88989;-57
2023/07/27 11:11:19;;;;;;;;;;;25.00;44.60;;;;;;5038978;27;87685;-54
2023/07/27 11:13:44;;;;;;;;;;;25.00;44.40;;;;;;5043578;28;87136;-54
2023/07/27 11:16:10;;;;;;;;;;;25.00;44.40;;;;;;5041031;27;88155;-55
2023/07/27 11:18:36;;;;;;;;;;;25.00;44.40;;;;;;5039962;27;89421;-58
2023/07/27 11:21:02;;;;;;;;;;;24.90;44.40;;;;;;5042890;28;86344;-56
2023/07/27 11:23:29;;;;;;;;;;;24.90;44.30;;;;;;5045758;28;87214;-53
2023/07/27 11:25:55;;;;;;;;;;;24.90;44.20;;;;;;5041589;27;87271;-58
2023/07/27 11:28:21;;;;;;;;;;;24.90;44.40;;;;;;5038353;27;88539;-57
2023/07/27 11:30:48;;;;;;;;;;;24.90;44.20;;;;;;5038113;28;88144;-56
2023/07/27 11:33:14;;;;;;;;;;;24.90;44.30;;;;;;5044048;27;87187;-55
2023/07/27 11:35:46;;;;;;;;;;;24.90;44.30;;;;;;5040326;28;87430;-54
2023/07/27 11:38:11;;;;;;;;;;;25.00;44.40;;;;;;5037398;28;88958;-54
2023/07/27 11:40:37;;;;;;;;;;;25.00;44.30;;;;;;5043068;28;87151;-57
2023/07/27 11:43:03;;;;;;;;;;;25.00;44.00;;;;;;5041761;27;88960;-58
2023/07/27 11:45:30;;;;;;;;;;;25.00;44.30;;;;;;5042805;28;87230;-58
2023/07/27 11:47:55;;;;;;;;;;;25.00;44.00;;;;;;5037213;28;87969;-54
2023/07/27 11:50:21;;;;;;;;;;;25.00;44.20;;;;;;5042330;28;87154;-58
2023/07/27 11:52:48;;;;;;;;;;;24.90;44.30;;;;;;5041185;27;88668;-59
2023/07/27 11:55:15;;;;;;;;;;;25.00;44.20;;;;;;5040412;28;87657;-57
2023/07/27 11:57:40;;;;;;;;;;;24.90;44.00;;;;;;5036091;28;88113;-56
2023/07/27 12:00:13;;;;;;;;;;;25.00;44.30;;;;;;5041991;28;87146;-56
2023/07/27 12:02:48;;;;;;;;;;;25.00;44.00;;;;;;5038580;27;88246;-58
2023/07/27 12:05:14;;;;;;;;;;;25.00;44.00;;;;;;5042725;28;88154;-57
2023/07/27 12:07:40;;;;;;;;;;;25.00;44.10;;;;;;5037823;28;87579;-55
2023/07/27 12:10:11;;;;;;;;;;;25.00;43.80;;;;;;5042891;28;86401;-54
2023/07/27 12:12:49;;;;;;;;;;;25.00;44.10;;;;;;5040668;27;87129;-57
2023/07/27 12:15:25;;;;;;;;;;;25.00;44.10;;;;;;5039242;28;87639;-57
2023/07/27 12:17:55;;;;;;;;;;;25.00;44.20;;;;;;5037458;28;88961;-55
2023/07/27 12:20:20;;;;;;;;;;;25.00;44.00;;;;;;5040179;27;86985;-58
2023/07/27 12:22:46;;;;;;;;;;;25.00;43.80;;;;;;5040206;28;87651;-56
2023/07/27 12:25:11;;;;;;;;;;;25.00;43.90;;;;;;5037416;28;88074;-59
2023/07/27 12:27:37;;;;;;;;;;;25.00;43.60;;;;;;5044686;28;87824;-54
2023/07/27 12:30:02;;;;;;;;;;;25.00;43.90;;;;;;5043796;27;87263;-55
2023/07/27 12:32:28;;;;;;;;;;;25.00;44.00;;;;;;5039275;28;87321;-58
2023/07/27 12:34:53;;;;;;;;;;;25.00;43.90;;;;;;5037561;28;86818;-55
2023/07/27 12:37:19;;;;;;;;;;;25.00;43.70;;;;;;5039554;28;87739;-57
2023/07/27 12:39:45;;;;;;;;;;;25.00;43.80;;;;;;5043308;27;87189;-54
2023/07/27 12:42:11;;;;;;;;;;;25.00;43.60;;;;;;5039355;28;88076;-57
2023/07/27 12:44:36;;;;;;;;;;;25.00;44.40;;;;;;5039514;27;89456;-55
2023/07/27 12:47:02;;;;;;;;;;;25.00;43.60;;;;;;5040052;28;87150;-52
2023/07/27 12:49:27;;;;;;;;;;;25.00;43.60;;;;;;5042194;28;87867;-57
2023/07/27 12:51:53;;;;;;;;;;;25.00;43.50;;;;;;5041744;28;87459;-59
2023/07/27 12:54:18;;;;;;;;;;;25.00;43.30;;;;;;5041716;27;87294;-54
2023/07/27 12:56:44;;;;;;;;;;;25.00;43.30;;;;;;5039151;28;88050;-58
2023/07/27 12:59:09;;;;;;;;;;;25.00;43.30;;;;;;5040360;28;86635;-51
2023/07/27 13:01:34;;;;;;;;;;;25.00;42.60;;;;;;5042214;28;86990;-54
2023/07/27 13:04:00;;;;;;;;;;;25.00;43.20;;;;;;5039953;27;88168;-55
2023/07/27 13:06:25;;;;;;;;;;;25.00;43.00;;;;;;5038059;28;88205;-57
2023/07/27 13:08:51;;;;;;;;;;;25.00;42.80;;;;;;5038433;28;88361;-58
2023/07/27 13:11:17;;;;;;;;;;;25.00;43.20;;;;;;5041432;27;88112;-54
2023/07/27 13:13:43;;;;;;;;;;;25.00;43.00;;;;;;5038984;27;88733;-57
2023/07/27 13:16:08;;;;;;;;;;;25.00;43.20;;;;;;5037935;28;87926;-56
2023/07/27 13:18:34;;;;;;;;;;;25.00;43.00;;;;;;5036770;28;87143;-57
2023/07/27 13:20:59;;;;;;;;;;;25.00;43.20;;;;;;5039988;28;87559;-56
2023/07/27 13:23:25;;;;;;;;;;;25.10;43.20;;;;;;5040931;28;87116;-52
2023/07/27 13:25:50;;;;;;;;;;;25.10;43.20;;;;;;5041693;28;88235;-56
2023/07/27 13:28:16;;;;;;;;;;;25.10;43.30;;;;;;5045212;28;87406;-57
2023/07/27 13:30:41;;;;;;;;;;;25.00;43.10;;;;;;5045412;27;88914;-57
2023/07/27 13:33:07;;;;;;;;;;;25.00;43.30;;;;;;5044782;28;87882;-57
2023/07/27 13:35:32;;;;;;;;;;;25.10;43.30;;;;;;5038442;28;88571;-58
2023/07/27 13:37:58;;;;;;;;;;;25.10;43.30;;;;;;5045297;28;88047;-57
2023/07/27 13:40:23;;;;;;;;;;;25.10;43.40;;;;;;5045107;27;90672;-58
2023/07/27 13:42:49;;;;;;;;;;;25.10;43.30;;;;;;5041980;27;89641;-56
2023/07/27 13:45:14;;;;;;;;;;;25.10;43.50;;;;;;5039573;28;87204;-59
2023/07/27 13:47:40;;;;;;;;;;;25.10;43.50;;;;;;5044782;28;87395;-53
2023/07/27 13:50:06;;;;;;;;;;;25.10;43.60;;;;;;5046657;27;89466;-57
2023/07/27 13:52:31;;;;;;;;;;;25.20;43.50;;;;;;5042136;28;88304;-58
2023/07/27 13:54:57;;;;;;;;;;;25.10;43.60;;;;;;5043972;28;88536;-56
2023/07/27 13:57:22;;;;;;;;;;;25.10;43.50;;;;;;5044724;28;87210;-53
2023/07/27 13:59:48;;;;;;;;;;;25.10;43.50;;;;;;5045911;27;87013;-57
2023/07/27 14:02:13;;;;;;;;;;;25.10;43.50;;;;;;5041256;27;89307;-54
2023/07/27 14:04:39;;;;;;;;;;;25.20;43.50;;;;;;5042347;28;88254;-52
2023/07/27 14:07:04;;;;;;;;;;;25.20;43.40;;;;;;5044869;28;87417;-53
2023/07/27 14:09:30;;;;;;;;;;;25.20;43.60;;;;;;5043902;27;87586;-52
2023/07/27 14:11:56;;;;;;;;;;;25.20;43.40;;;;;;5042548;28;86368;-56
2023/07/27 14:14:21;;;;;;;;;;;25.30;43.50;;;;;;5038098;28;87878;-59